createdAt,value
2016-04-20T08:27:44.047Z,1025.28
2016-04-20T08:28:44.097Z,1025.26
2016-04-20T08:29:44.146Z,1025.25
2016-04-20T08:30:44.196Z,1025.25
2016-04-20T08:31:44.261Z,1025.22
2016-04-20T08:32:44.310Z,1025.23
2016-04-20T08:33:44.344Z,1025.23
2016-04-20T08:34:44.410Z,1025.24
2016-04-20T08:35:44.443Z,1025.26
2016-04-20T08:36:44.509Z,1025.28
2016-04-20T08:37:44.558Z,1025.24
2016-04-20T08:38:44.607Z,1025.28
2016-04-20T08:39:44.657Z,1025.32
2016-04-20T08:40:44.707Z,1025.3
2016-04-20T08:41:44.757Z,1025.3
2016-04-20T08:42:44.806Z,1025.34
2016-04-20T08:43:44.856Z,1025.3
2016-04-20T08:44:44.906Z,1025.33
2016-04-20T08:45:44.955Z,1025.32
2016-04-20T08:46:45.004Z,1025.35
2016-04-20T08:47:45.054Z,1025.33
2016-04-20T08:48:45.104Z,1025.27
2016-04-20T08:49:45.232Z,1025.27
2016-04-20T08:50:45.203Z,1025.29
2016-04-20T08:51:45.268Z,1025.29
2016-04-20T08:52:45.317Z,1025.26
2016-04-20T08:53:45.351Z,1025.28
2016-04-20T08:54:45.417Z,1025.23
2016-04-20T08:55:45.466Z,1025.28
2016-04-20T08:56:45.516Z,1025.26
2016-04-20T08:57:45.565Z,1025.26
2016-04-20T08:58:45.615Z,1025.26
2016-04-20T08:59:45.664Z,1025.28
2016-04-20T09:00:45.714Z,1025.26
2016-04-20T09:01:45.764Z,1025.25
2016-04-20T09:02:45.829Z,1025.27
2016-04-20T09:03:45.863Z,1025.29
2016-04-20T09:04:46.084Z,1025.32
2016-04-20T09:05:45.977Z,1025.3
2016-04-20T09:06:46.026Z,1025.3
2016-04-20T09:07:46.077Z,1025.28
2016-04-20T09:08:46.126Z,1025.35
2016-04-20T09:09:46.176Z,1025.37
2016-04-20T09:10:46.226Z,1025.36
2016-04-20T09:11:46.275Z,1025.36
2016-04-20T09:12:46.324Z,1025.36
2016-04-20T09:13:46.374Z,1025.34
2016-04-20T09:14:46.424Z,1025.4
2016-04-20T09:15:46.473Z,1025.37
2016-04-20T09:16:46.538Z,1025.36
2016-04-20T09:17:46.572Z,1025.38
2016-04-20T09:18:46.622Z,1025.41
2016-04-20T09:19:46.687Z,1025.43
2016-04-20T09:20:46.737Z,1025.44
2016-04-20T09:21:46.786Z,1025.45
2016-04-20T09:22:46.835Z,1025.46
2016-04-20T09:23:46.885Z,1025.5
2016-04-20T09:24:46.934Z,1025.45
2016-04-20T09:25:46.983Z,1025.49
2016-04-20T09:26:47.049Z,1025.49
2016-04-20T09:27:47.082Z,1025.45
2016-04-20T09:28:47.773Z,1025.49
2016-04-20T09:29:47.197Z,1025.47
2016-04-20T09:30:47.247Z,1025.46
2016-04-20T09:31:47.281Z,1025.54
2016-04-20T09:32:47.346Z,1025.48
2016-04-20T09:33:47.395Z,1025.5
2016-04-20T09:34:47.445Z,1025.43
2016-04-20T09:35:47.495Z,1025.45
2016-04-20T09:36:47.544Z,1025.45
2016-04-20T09:37:47.593Z,1025.45
2016-04-20T09:38:47.642Z,1025.44
2016-04-20T09:39:47.693Z,1025.44
2016-04-20T09:40:47.742Z,1025.44
2016-04-20T09:41:47.808Z,1025.39
2016-04-20T09:42:47.842Z,1025.38
2016-04-20T09:43:47.906Z,1025.42
2016-04-20T09:44:47.956Z,1025.34
2016-04-20T09:45:47.989Z,1025.37
2016-04-20T09:46:48.055Z,1025.35
2016-04-20T09:47:48.105Z,1025.34
2016-04-20T09:48:48.139Z,1025.36
2016-04-20T09:49:48.205Z,1025.35
2016-04-20T09:50:48.253Z,1025.32
2016-04-20T09:51:48.303Z,1025.33
2016-04-20T09:52:48.368Z,1025.32
2016-04-20T09:53:48.402Z,1025.35
2016-04-20T09:54:48.452Z,1025.34
2016-04-20T09:55:48.517Z,1025.33
2016-04-20T09:56:48.551Z,1025.34
2016-04-20T09:57:48.601Z,1025.39
2016-04-20T09:58:48.666Z,1025.36
2016-04-20T09:59:48.699Z,1025.3
2016-04-20T10:00:48.874Z,1025.31
2016-04-20T10:01:48.814Z,1025.27
2016-04-20T10:02:48.864Z,1025.25
2016-04-20T10:03:48.913Z,1025.26
2016-04-20T10:04:48.962Z,1025.29
2016-04-20T10:05:49.012Z,1025.27
2016-04-20T10:06:49.078Z,1025.25
2016-04-20T10:07:49.111Z,1025.24
2016-04-20T10:08:49.161Z,1025.27
2016-04-20T10:09:49.226Z,1025.26
2016-04-20T10:10:49.276Z,1025.24
2016-04-20T10:11:49.310Z,1025.23
2016-04-20T10:12:49.375Z,1025.24
2016-04-20T10:13:49.425Z,1025.22
2016-04-20T10:14:49.459Z,1025.25
2016-04-20T10:15:49.525Z,1025.19
2016-04-20T10:16:49.670Z,1025.22
2016-04-20T10:17:49.626Z,1025.21
2016-04-20T10:18:49.675Z,1025.2
2016-04-20T10:19:49.725Z,1025.22
2016-04-20T10:20:49.775Z,1025.17
2016-04-20T10:21:49.824Z,1025.15
2016-04-20T10:22:49.874Z,1025.16
2016-04-20T10:23:49.939Z,1025.12
2016-04-20T10:24:49.988Z,1025.15
2016-04-20T10:25:50.022Z,1025.17
2016-04-20T10:26:50.071Z,1025.15
2016-04-20T10:27:50.137Z,1025.11
2016-04-20T10:28:50.171Z,1025.1
2016-04-20T10:29:50.236Z,1025.08
2016-04-20T10:30:50.285Z,1025.06
2016-04-20T10:31:50.335Z,1025.06
2016-04-20T10:32:50.385Z,1025.1
2016-04-20T10:33:50.435Z,1025.09
2016-04-20T10:34:50.485Z,1025.05
2016-04-20T10:35:50.534Z,1025.02
2016-04-20T10:36:50.583Z,1025.04
2016-04-20T10:37:50.632Z,1025.05
2016-04-20T10:38:50.698Z,1025.02
2016-04-20T10:39:50.731Z,1025.06
2016-04-20T10:40:50.798Z,1025.02
2016-04-20T10:41:50.847Z,1024.97
2016-04-20T10:42:50.896Z,1024.99
2016-04-20T10:43:50.945Z,1025.04
2016-04-20T10:44:50.995Z,1025.04
2016-04-20T10:45:51.045Z,1025.04
2016-04-20T10:46:51.111Z,1025.04
2016-04-20T10:47:51.144Z,1025
2016-04-20T10:48:51.194Z,1025.01
2016-04-20T10:49:51.258Z,1025
2016-04-20T10:50:51.308Z,1024.98
2016-04-20T10:51:51.342Z,1024.98
2016-04-20T10:52:51.407Z,1024.94
2016-04-20T10:53:51.457Z,1024.93
2016-04-20T10:54:51.491Z,1024.87
2016-04-20T10:55:51.556Z,1024.91
2016-04-20T10:56:51.605Z,1024.89
2016-04-20T10:57:51.655Z,1024.89
2016-04-20T10:58:51.704Z,1024.84
2016-04-20T10:59:51.754Z,1024.87
2016-04-20T11:00:51.819Z,1024.86
2016-04-20T11:01:51.854Z,1024.86
2016-04-20T11:02:51.904Z,1024.84
2016-04-20T11:03:51.968Z,1024.81
2016-04-20T11:04:52.018Z,1024.82
2016-04-20T11:05:52.067Z,1024.82
2016-04-20T11:06:52.101Z,1024.86
2016-04-20T11:07:52.167Z,1024.86
2016-04-20T11:08:52.216Z,1024.85
2016-04-20T11:09:52.250Z,1024.85
2016-04-20T11:10:52.315Z,1024.83
2016-04-20T11:11:52.365Z,1024.81
2016-04-20T11:12:52.415Z,1024.77
2016-04-20T11:13:52.479Z,1024.81
2016-04-20T11:14:52.529Z,1024.77
2016-04-20T11:15:52.563Z,1024.78
2016-04-20T11:16:52.628Z,1024.79
2016-04-20T11:17:52.678Z,1024.77
2016-04-20T11:18:52.712Z,1024.73
2016-04-20T11:19:52.778Z,1024.76
2016-04-20T11:20:52.811Z,1024.74
2016-04-20T11:21:52.876Z,1024.74
2016-04-20T11:22:52.925Z,1024.73
2016-04-20T11:23:52.975Z,1024.71
2016-04-20T11:24:53.025Z,1024.68
2016-04-20T11:25:53.090Z,1024.71
2016-04-20T11:26:53.124Z,1024.73
2016-04-20T11:27:53.188Z,1024.7
2016-04-20T11:28:53.238Z,1024.73
2016-04-20T11:29:53.272Z,1024.73
2016-04-20T11:30:53.322Z,1024.73
2016-04-20T11:31:53.388Z,1024.72
2016-04-20T11:32:53.422Z,1024.67
2016-04-20T11:33:53.487Z,1024.61
2016-04-20T11:34:53.536Z,1024.64
2016-04-20T11:35:53.585Z,1024.62
2016-04-20T11:36:53.635Z,1024.55
2016-04-20T11:37:53.685Z,1024.55
2016-04-20T11:38:53.735Z,1024.55
2016-04-20T11:39:53.799Z,1024.48
2016-04-20T11:40:53.834Z,1024.56
2016-04-20T11:41:53.883Z,1024.54
2016-04-20T11:42:53.948Z,1024.51
2016-04-20T11:43:53.981Z,1024.44
2016-04-20T11:44:54.048Z,1024.45
2016-04-20T11:45:54.097Z,1024.44
2016-04-20T11:46:54.130Z,1024.45
2016-04-20T11:47:54.196Z,1024.49
2016-04-20T11:48:54.245Z,1024.47
2016-04-20T11:49:54.295Z,1024.51
2016-04-20T11:50:54.345Z,1024.51
2016-04-20T11:51:54.394Z,1024.51
2016-04-20T11:52:54.444Z,1024.46
2016-04-20T11:53:54.509Z,1024.48
2016-04-20T11:54:54.558Z,1024.45
2016-04-20T11:55:54.592Z,1024.46
2016-04-20T11:56:54.657Z,1024.46
2016-04-20T11:57:54.707Z,1024.5
2016-04-20T11:58:54.742Z,1024.48
2016-04-20T11:59:54.807Z,1024.44
2016-04-20T12:00:54.856Z,1024.44
2016-04-20T12:01:54.905Z,1024.4
2016-04-20T12:02:54.954Z,1024.41
2016-04-20T12:03:55.004Z,1024.41
2016-04-20T12:04:55.055Z,1024.41
2016-04-20T12:05:55.104Z,1024.35
2016-04-20T12:06:55.154Z,1024.39
2016-04-20T12:07:55.203Z,1024.33
2016-04-20T12:08:55.252Z,1024.34
2016-04-20T12:09:55.301Z,1024.3
2016-04-20T12:10:55.351Z,1024.3
2016-04-20T12:11:55.402Z,1024.28
2016-04-20T12:12:55.467Z,1024.27
2016-04-20T12:13:55.516Z,1024.32
2016-04-20T12:14:55.565Z,1024.36
2016-04-20T12:15:55.614Z,1024.32
2016-04-20T12:16:55.665Z,1024.31
2016-04-20T12:17:55.715Z,1024.26
2016-04-20T12:18:55.764Z,1024.23
2016-04-20T12:19:55.814Z,1024.21
2016-04-20T12:20:55.863Z,1024.2
2016-04-20T12:21:55.912Z,1024.19
2016-04-20T12:22:55.962Z,1024.24
2016-04-20T12:23:56.011Z,1024.22
2016-04-20T12:24:56.077Z,1024.24
2016-04-20T12:25:56.110Z,1024.2
2016-04-20T12:26:56.160Z,1024.2
2016-04-20T12:27:56.225Z,1024.2
2016-04-20T12:28:56.275Z,1024.17
2016-04-20T12:29:56.324Z,1024.19
2016-04-20T12:30:56.391Z,1024.2
2016-04-20T12:31:56.423Z,1024.22
2016-04-20T12:32:56.473Z,1024.19
2016-04-20T12:33:56.538Z,1024.19
2016-04-20T12:34:56.588Z,1024.19
2016-04-20T12:35:56.622Z,1024.18
2016-04-20T12:36:56.688Z,1024.13
2016-04-20T12:37:56.721Z,1024.14
2016-04-20T12:38:56.787Z,1024.15
2016-04-20T12:39:56.821Z,1024.19
2016-04-20T12:40:56.886Z,1024.15
2016-04-20T12:41:56.935Z,1024.15
2016-04-20T12:42:56.984Z,1024.11
2016-04-20T12:43:57.034Z,1024.13
2016-04-20T12:44:57.084Z,1024.1
2016-04-20T12:45:57.134Z,1024.15
2016-04-20T12:46:57.184Z,1024.09
2016-04-20T12:47:57.232Z,1024.14
2016-04-20T12:48:57.282Z,1024.1
2016-04-20T12:49:57.331Z,1024.08
2016-04-20T12:50:57.381Z,1024.15
2016-04-20T12:51:57.447Z,1024.1
2016-04-20T12:52:57.480Z,1024.12
2016-04-20T12:53:57.530Z,1024.14
2016-04-20T12:54:57.595Z,1024.08
2016-04-20T12:55:57.629Z,1024.1
2016-04-20T12:56:57.678Z,1024.08
2016-04-20T12:57:57.744Z,1024.12
2016-04-20T12:58:57.794Z,1024.13
2016-04-20T12:59:57.827Z,1024.16
2016-04-20T13:00:57.891Z,1024.1
2016-04-20T13:01:57.941Z,1024.11
2016-04-20T13:02:57.992Z,1024.07
2016-04-20T13:03:58.041Z,1024.06
2016-04-20T13:04:58.091Z,1024.03
2016-04-20T13:05:58.155Z,1024.01
2016-04-20T13:06:58.205Z,1024.04
2016-04-20T13:07:58.240Z,1023.99
2016-04-20T13:08:58.305Z,1024.02
2016-04-20T13:09:58.370Z,1023.94
2016-04-20T13:10:58.387Z,1023.97
2016-04-20T13:11:58.453Z,1024.02
2016-04-20T13:12:58.503Z,1023.96
2016-04-20T13:13:58.537Z,1023.97
2016-04-20T13:14:58.587Z,1023.98
2016-04-20T13:15:58.651Z,1024.02
2016-04-20T13:16:58.701Z,1024.02
2016-04-20T13:17:58.751Z,1024
2016-04-20T13:18:58.800Z,1024
2016-04-20T13:19:58.850Z,1023.99
2016-04-20T13:20:58.900Z,1023.97
2016-04-20T13:21:58.948Z,1024.05
2016-04-20T13:22:58.998Z,1024
2016-04-20T13:23:59.047Z,1024.02
2016-04-20T13:24:59.097Z,1023.99
2016-04-20T13:25:59.147Z,1023.94
2016-04-20T13:26:59.212Z,1023.97
2016-04-20T13:27:59.262Z,1023.98
2016-04-20T13:28:59.311Z,1023.94
2016-04-20T13:29:59.361Z,1023.94
2016-04-20T13:30:59.410Z,1023.89
2016-04-20T13:31:59.461Z,1023.91
2016-04-20T13:32:59.510Z,1023.86
2016-04-20T13:33:59.560Z,1023.91
2016-04-20T13:34:59.608Z,1023.87
2016-04-20T13:35:59.658Z,1023.88
2016-04-20T13:36:59.707Z,1023.88
2016-04-20T13:37:59.758Z,1023.92
2016-04-20T13:38:59.823Z,1023.87
2016-04-20T13:39:59.872Z,1023.93
2016-04-20T13:40:59.922Z,1023.92
2016-04-20T13:41:59.956Z,1023.89
2016-04-20T13:43:00.020Z,1023.86
2016-04-20T13:44:00.071Z,1023.86
2016-04-20T13:45:00.120Z,1023.87
2016-04-20T13:46:00.170Z,1023.85
2016-04-20T13:47:00.219Z,1023.83
2016-04-20T13:48:00.269Z,1023.82
2016-04-20T13:49:00.318Z,1023.83
2016-04-20T13:50:00.368Z,1023.82
2016-04-20T13:51:00.448Z,1023.88
2016-04-20T13:52:00.468Z,1023.83
2016-04-20T13:53:00.517Z,1023.83
2016-04-20T13:54:00.581Z,1023.85
2016-04-20T13:55:00.616Z,1023.82
2016-04-20T13:56:00.665Z,1023.8
2016-04-20T13:57:00.730Z,1023.85
2016-04-20T13:58:00.781Z,1023.85
2016-04-20T13:59:00.814Z,1023.87
2016-04-20T14:00:00.880Z,1023.83
2016-04-20T14:01:00.929Z,1023.85
2016-04-20T14:02:00.978Z,1023.85
2016-04-20T14:03:01.028Z,1023.83
2016-04-20T14:04:01.077Z,1023.86
2016-04-20T14:05:03.611Z,1023.86
2016-04-20T14:06:01.223Z,1023.85
2016-04-20T14:07:01.227Z,1023.8
2016-04-20T14:08:01.291Z,1023.75
2016-04-20T14:09:01.341Z,1023.75
2016-04-20T14:10:01.375Z,1023.74
2016-04-20T14:11:01.440Z,1023.75
2016-04-20T14:12:01.490Z,1023.74
2016-04-20T14:13:01.524Z,1023.77
2016-04-20T14:14:01.574Z,1023.76
2016-04-20T14:15:01.638Z,1023.8
2016-04-20T14:16:01.687Z,1023.79
2016-04-20T14:17:01.721Z,1023.78
2016-04-20T14:18:01.787Z,1023.8
2016-04-20T14:19:01.837Z,1023.8
2016-04-20T14:20:01.887Z,1023.77
2016-04-20T14:21:01.967Z,1023.74
2016-04-20T14:22:01.986Z,1023.76
2016-04-20T14:23:02.035Z,1023.75
2016-04-20T14:24:02.085Z,1023.82
2016-04-20T14:25:02.135Z,1023.79
2016-04-20T14:26:02.201Z,1023.72
2016-04-20T14:27:02.249Z,1023.78
2016-04-20T14:28:02.284Z,1023.74
2016-04-20T14:29:02.349Z,1023.73
2016-04-20T14:30:02.399Z,1023.8
2016-04-20T14:31:02.432Z,1023.75
2016-04-20T14:32:02.497Z,1023.76
2016-04-20T14:33:02.547Z,1023.75
2016-04-20T14:34:02.597Z,1023.76
2016-04-20T14:35:02.646Z,1023.73
2016-04-20T14:36:02.695Z,1023.7
2016-04-20T14:37:02.745Z,1023.75
2016-04-20T14:38:02.795Z,1023.72
2016-04-20T14:39:02.845Z,1023.71
2016-04-20T14:40:02.894Z,1023.68
2016-04-20T14:41:02.944Z,1023.66
2016-04-20T14:42:02.994Z,1023.66
2016-04-20T14:43:03.042Z,1023.64
2016-04-20T14:44:03.092Z,1023.65
2016-04-20T14:45:03.158Z,1023.69
2016-04-20T14:46:03.192Z,1023.66
2016-04-20T14:47:03.257Z,1023.68
2016-04-20T14:48:03.291Z,1023.7
2016-04-20T14:49:03.341Z,1023.68
2016-04-20T14:50:03.405Z,1023.7
2016-04-20T14:51:03.455Z,1023.67
2016-04-20T14:52:03.504Z,1023.65
2016-04-20T14:53:03.554Z,1023.62
2016-04-20T14:54:03.604Z,1023.62
2016-04-20T14:55:03.654Z,1023.62
2016-04-20T14:56:03.702Z,1023.58
2016-04-20T14:57:03.752Z,1023.55
2016-04-20T14:58:03.802Z,1023.56
2016-04-20T14:59:03.868Z,1023.59
2016-04-20T15:00:03.901Z,1023.58
2016-04-20T15:01:03.951Z,1023.55
2016-04-20T15:02:04.015Z,1023.54
2016-04-20T15:03:04.050Z,1023.55
2016-04-20T15:04:04.114Z,1023.52
2016-04-20T15:05:04.164Z,1023.53
2016-04-20T15:06:04.198Z,1023.53
2016-04-20T15:07:04.264Z,1023.45
2016-04-20T15:08:04.314Z,1023.48
2016-04-20T15:09:04.363Z,1023.52
2016-04-20T15:10:04.412Z,1023.47
2016-04-20T15:11:04.478Z,1023.5
2016-04-20T15:12:04.511Z,1023.53
2016-04-20T15:13:04.577Z,1023.51
2016-04-20T15:14:04.610Z,1023.52
2016-04-20T15:15:04.660Z,1023.51
2016-04-20T15:16:04.725Z,1023.48
2016-04-20T15:17:04.758Z,1023.48
2016-04-20T15:18:04.808Z,1023.47
2016-04-20T15:19:04.858Z,1023.4
2016-04-20T15:20:04.908Z,1023.39
2016-04-20T15:21:04.973Z,1023.37
2016-04-20T15:22:05.022Z,1023.35
2016-04-20T15:23:05.072Z,1023.31
2016-04-20T15:24:05.121Z,1023.32
2016-04-20T15:25:05.171Z,1023.3
2016-04-20T15:26:05.221Z,1023.3
2016-04-20T15:27:05.270Z,1023.32
2016-04-20T15:28:05.321Z,1023.33
2016-04-20T15:29:05.370Z,1023.34
2016-04-20T15:30:05.419Z,1023.33
2016-04-20T15:31:05.468Z,1023.34
2016-04-20T15:32:05.518Z,1023.37
2016-04-20T15:33:05.568Z,1023.38
2016-04-20T15:34:05.617Z,1023.37
2016-04-20T15:35:05.682Z,1023.37
2016-04-20T15:36:05.721Z,1023.42
2016-04-20T15:37:05.786Z,1023.39
2016-04-20T15:38:05.820Z,1023.4
2016-04-20T15:39:05.869Z,1023.38
2016-04-20T15:40:05.936Z,1023.39
2016-04-20T15:41:05.969Z,1023.31
2016-04-20T15:42:06.019Z,1023.33
2016-04-20T15:43:06.084Z,1023.33
2016-04-20T15:44:06.119Z,1023.31
2016-04-20T15:45:06.167Z,1023.35
2016-04-20T15:46:06.233Z,1023.28
2016-04-20T15:47:06.283Z,1023.28
2016-04-20T15:48:06.333Z,1023.29
2016-04-20T15:49:06.382Z,1023.21
2016-04-20T15:50:06.431Z,1023.28
2016-04-20T15:51:06.480Z,1023.24
2016-04-20T15:52:06.530Z,1023.27
2016-04-20T15:53:06.580Z,1023.24
2016-04-20T15:54:06.629Z,1023.21
2016-04-20T15:55:06.679Z,1023.2
2016-04-20T15:56:06.728Z,1023.22
2016-04-20T15:57:06.793Z,1023.24
2016-04-20T15:58:06.880Z,1023.17
2016-04-20T15:59:06.971Z,1023.16
2016-04-20T16:00:07.063Z,1023.12
2016-04-20T16:01:07.154Z,1023.08
2016-04-20T16:02:07.245Z,1023.09
2016-04-20T16:03:07.317Z,1023.09
2016-04-20T16:04:07.383Z,1023.07
2016-04-20T16:05:07.448Z,1023.01
2016-04-20T16:06:47.957Z,1023.06
2016-04-20T16:07:47.972Z,1023.06
2016-04-20T16:08:48.043Z,1023.03
2016-04-20T16:09:48.098Z,1023.03
2016-04-20T16:10:48.152Z,1023.04
2016-04-20T16:11:48.208Z,1023
2016-04-20T16:12:48.261Z,1023.01
2016-04-20T16:13:48.313Z,1023
2016-04-20T16:14:48.365Z,1022.96
2016-04-20T16:15:48.432Z,1023
2016-04-20T16:16:48.467Z,1022.97
2016-04-20T16:17:48.518Z,1022.99
2016-04-20T16:18:48.569Z,1022.99
2016-04-20T16:19:48.635Z,1022.96
2016-04-20T16:20:48.670Z,1022.96
2016-04-20T16:21:48.736Z,1022.97
2016-04-20T16:22:48.786Z,1022.93
2016-04-20T16:23:48.835Z,1022.91
2016-04-20T16:24:48.885Z,1022.9
2016-04-20T16:25:48.935Z,1022.87
2016-04-20T16:26:48.985Z,1022.87
2016-04-20T16:27:49.035Z,1022.85
2016-04-20T16:28:49.085Z,1022.85
2016-04-20T16:29:49.135Z,1022.85
2016-04-20T16:30:49.200Z,1022.8
2016-04-20T16:31:49.233Z,1022.82
2016-04-20T16:32:49.283Z,1022.82
2016-04-20T16:33:49.332Z,1022.79
2016-04-20T16:34:49.382Z,1022.8
2016-04-20T16:35:49.432Z,1022.8
2016-04-20T16:36:49.496Z,1022.8
2016-04-20T16:37:49.546Z,1022.77
2016-04-20T16:38:49.580Z,1022.83
2016-04-20T16:39:49.646Z,1022.81
2016-04-20T16:40:49.695Z,1022.82
2016-04-20T16:41:49.745Z,1022.81
2016-04-20T16:42:49.795Z,1022.78
2016-04-20T16:43:49.843Z,1022.82
2016-04-20T16:44:49.893Z,1022.77
2016-04-20T16:45:49.943Z,1022.73
2016-04-20T16:46:49.992Z,1022.71
2016-04-20T16:47:50.058Z,1022.76
2016-04-20T16:48:50.092Z,1022.78
2016-04-20T16:49:50.142Z,1022.7
2016-04-20T16:50:50.207Z,1022.73
2016-04-20T16:51:50.256Z,1022.69
2016-04-20T16:52:50.290Z,1022.74
2016-04-20T16:53:50.355Z,1022.69
2016-04-20T16:54:50.405Z,1022.71
2016-04-20T16:55:50.455Z,1022.76
2016-04-20T16:56:50.503Z,1022.74
2016-04-20T16:57:50.553Z,1022.74
2016-04-20T16:58:50.603Z,1022.72
2016-04-20T16:59:50.653Z,1022.75
2016-04-20T17:00:50.702Z,1022.7
2016-04-20T17:01:50.767Z,1022.72
2016-04-20T17:02:50.816Z,1022.71
2016-04-20T17:03:50.851Z,1022.68
2016-04-20T17:04:50.916Z,1022.68
2016-04-20T17:05:50.966Z,1022.7
2016-04-20T17:06:50.999Z,1022.65
2016-04-20T17:07:51.065Z,1022.64
2016-04-20T17:08:51.115Z,1022.67
2016-04-20T17:09:51.163Z,1022.67
2016-04-20T17:10:51.213Z,1022.67
2016-04-20T17:11:51.248Z,1022.64
2016-04-20T17:12:51.313Z,1022.65
2016-04-20T17:13:51.362Z,1022.65
2016-04-20T17:14:51.412Z,1022.69
2016-04-20T17:15:51.462Z,1022.66
2016-04-20T17:16:51.512Z,1022.64
2016-04-20T17:17:51.560Z,1022.62
2016-04-20T17:18:51.609Z,1022.6
2016-04-20T17:19:51.675Z,1022.62
2016-04-20T17:20:51.725Z,1022.56
2016-04-20T17:21:51.775Z,1022.56
2016-04-20T17:22:51.824Z,1022.59
2016-04-20T17:23:51.873Z,1022.6
2016-04-20T17:24:51.923Z,1022.56
2016-04-20T17:25:51.973Z,1022.56
2016-04-20T17:26:52.022Z,1022.6
2016-04-20T17:27:52.071Z,1022.59
2016-04-20T17:28:52.121Z,1022.61
2016-04-20T17:29:52.172Z,1022.59
2016-04-20T17:30:52.220Z,1022.53
2016-04-20T17:31:52.285Z,1022.52
2016-04-20T17:32:52.336Z,1022.56
2016-04-20T17:33:52.369Z,1022.53
2016-04-20T17:34:52.435Z,1022.53
2016-04-20T17:35:52.500Z,1022.54
2016-04-20T17:36:52.533Z,1022.53
2016-04-20T17:37:52.583Z,1022.54
2016-04-20T17:38:52.632Z,1022.53
2016-04-20T17:39:52.698Z,1022.52
2016-04-20T17:40:52.732Z,1022.52
2016-04-20T17:41:52.797Z,1022.52
2016-04-20T17:42:52.832Z,1022.51
2016-04-20T17:43:52.880Z,1022.47
2016-04-20T17:44:52.946Z,1022.51
2016-04-20T17:45:52.980Z,1022.53
2016-04-20T17:46:53.045Z,1022.46
2016-04-20T17:47:53.095Z,1022.48
2016-04-20T17:48:53.143Z,1022.47
2016-04-20T17:49:53.194Z,1022.47
2016-04-20T17:50:53.243Z,1022.44
2016-04-20T17:51:53.293Z,1022.47
2016-04-20T17:52:53.342Z,1022.56
2016-04-20T17:53:53.398Z,1022.52
2016-04-20T17:54:53.432Z,1022.51
2016-04-20T17:55:53.496Z,1022.56
2016-04-20T17:56:53.546Z,1022.54
2016-04-20T17:57:53.596Z,1022.55
2016-04-20T17:58:53.645Z,1022.53
2016-04-20T17:59:53.695Z,1022.5
2016-04-20T18:00:53.759Z,1022.54
2016-04-20T18:01:53.794Z,1022.57
2016-04-20T18:02:53.859Z,1022.58
2016-04-20T18:03:53.908Z,1022.6
2016-04-20T18:04:53.959Z,1022.6
2016-04-20T18:05:54.008Z,1022.58
2016-04-20T18:06:54.056Z,1022.59
2016-04-20T18:07:54.105Z,1022.58
2016-04-20T18:08:54.156Z,1022.57
2016-04-20T18:09:54.204Z,1022.56
2016-04-20T18:10:54.253Z,1022.54
2016-04-20T18:11:54.320Z,1022.54
2016-04-20T18:12:54.353Z,1022.53
2016-04-20T18:13:54.402Z,1022.53
2016-04-20T18:14:54.467Z,1022.53
2016-04-20T18:15:54.502Z,1022.52
2016-04-20T18:16:54.567Z,1022.5
2016-04-20T18:17:54.605Z,1022.53
2016-04-20T18:18:54.654Z,1022.46
2016-04-20T18:19:54.703Z,1022.47
2016-04-20T18:20:54.770Z,1022.45
2016-04-20T18:21:54.808Z,1022.48
2016-04-20T18:22:54.858Z,1022.47
2016-04-20T18:23:54.923Z,1022.48
2016-04-20T18:24:54.972Z,1022.47
2016-04-20T18:25:55.021Z,1022.47
2016-04-20T18:26:55.072Z,1022.47
2016-04-20T18:27:55.121Z,1022.48
2016-04-20T18:28:55.170Z,1022.47
2016-04-20T18:29:55.220Z,1022.44
2016-04-20T18:30:55.269Z,1022.48
2016-04-20T18:31:55.335Z,1022.45
2016-04-20T18:32:55.369Z,1022.48
2016-04-20T18:33:55.418Z,1022.48
2016-04-20T18:34:55.483Z,1022.49
2016-04-20T18:35:55.533Z,1022.48
2016-04-20T18:36:55.583Z,1022.52
2016-04-20T18:37:55.616Z,1022.5
2016-04-20T18:38:55.682Z,1022.51
2016-04-20T18:39:55.732Z,1022.52
2016-04-20T18:40:55.766Z,1022.5
2016-04-20T18:41:55.830Z,1022.49
2016-04-20T18:42:55.880Z,1022.49
2016-04-20T18:43:55.929Z,1022.53
2016-04-20T18:44:55.979Z,1022.51
2016-04-20T18:45:56.044Z,1022.53
2016-04-20T18:46:56.079Z,1022.53
2016-04-20T18:47:56.128Z,1022.49
2016-04-20T18:48:56.193Z,1022.54
2016-04-20T18:49:56.226Z,1022.48
2016-04-20T18:50:56.292Z,1022.58
2016-04-20T18:51:56.341Z,1022.53
2016-04-20T18:52:56.392Z,1022.58
2016-04-20T18:53:56.441Z,1022.55
2016-04-20T18:54:56.490Z,1022.54
2016-04-20T18:55:56.540Z,1022.55
2016-04-20T18:56:56.605Z,1022.57
2016-04-20T18:57:56.655Z,1022.57
2016-04-20T18:58:56.689Z,1022.56
2016-04-20T18:59:56.738Z,1022.53
2016-04-20T19:00:56.804Z,1022.52
2016-04-20T19:01:56.838Z,1022.58
2016-04-20T19:02:56.902Z,1022.53
2016-04-20T19:03:56.936Z,1022.52
2016-04-20T19:04:57.002Z,1022.54
2016-04-20T19:05:57.052Z,1022.55
2016-04-20T19:06:57.117Z,1022.51
2016-04-20T19:07:57.149Z,1022.51
2016-04-20T19:08:57.199Z,1022.56
2016-04-20T19:09:57.249Z,1022.48
2016-04-20T19:10:57.315Z,1022.51
2016-04-20T19:11:57.364Z,1022.5
2016-04-20T19:12:57.414Z,1022.52
2016-04-20T19:13:57.448Z,1022.52
2016-04-20T19:14:57.513Z,1022.47
2016-04-20T19:15:57.547Z,1022.48
2016-04-20T19:16:57.612Z,1022.43
2016-04-20T19:17:57.661Z,1022.45
2016-04-20T19:18:57.711Z,1022.41
2016-04-20T19:19:57.761Z,1022.4
2016-04-20T19:20:57.810Z,1022.39
2016-04-20T19:21:57.860Z,1022.41
2016-04-20T19:22:57.925Z,1022.43
2016-04-20T19:23:57.975Z,1022.42
2016-04-20T19:24:58.008Z,1022.42
2016-04-20T19:25:58.073Z,1022.46
2016-04-20T19:26:58.123Z,1022.47
2016-04-20T19:27:58.158Z,1022.46
2016-04-20T19:28:58.206Z,1022.48
2016-04-20T19:29:58.256Z,1022.48
2016-04-20T19:30:58.322Z,1022.51
2016-04-20T19:31:58.371Z,1022.52
2016-04-20T19:32:58.422Z,1022.53
2016-04-20T19:33:58.470Z,1022.54
2016-04-20T19:34:58.519Z,1022.54
2016-04-20T19:35:58.569Z,1022.5
2016-04-20T19:36:58.635Z,1022.53
2016-04-20T19:37:58.684Z,1022.5
2016-04-20T19:38:58.719Z,1022.53
2016-04-20T19:39:58.768Z,1022.49
2016-04-20T19:40:58.833Z,1022.48
2016-04-20T19:41:58.883Z,1022.45
2016-04-20T19:42:58.916Z,1022.45
2016-04-20T19:43:58.982Z,1022.45
2016-04-20T19:44:59.031Z,1022.45
2016-04-20T19:45:59.081Z,1022.44
2016-04-20T19:46:59.130Z,1022.42
2016-04-20T19:47:59.196Z,1022.42
2016-04-20T19:48:59.229Z,1022.45
2016-04-20T19:49:59.279Z,1022.43
2016-04-20T19:50:59.345Z,1022.46
2016-04-20T19:51:59.393Z,1022.44
2016-04-20T19:52:59.443Z,1022.44
2016-04-20T19:53:59.477Z,1022.44
2016-04-20T19:54:59.542Z,1022.44
2016-04-20T19:55:59.592Z,1022.43
2016-04-20T19:56:59.626Z,1022.42
2016-04-20T19:57:59.691Z,1022.43
2016-04-20T19:58:59.741Z,1022.41
2016-04-20T19:59:59.790Z,1022.43
2016-04-20T20:00:59.840Z,1022.4
2016-04-20T20:01:59.889Z,1022.39
2016-04-20T20:02:59.939Z,1022.39
2016-04-20T20:03:59.988Z,1022.38
2016-04-20T20:05:00.054Z,1022.39
2016-04-20T20:06:00.088Z,1022.37
2016-04-20T20:07:00.153Z,1022.4
2016-04-20T20:08:00.186Z,1022.42
2016-04-20T20:09:00.252Z,1022.4
2016-04-20T20:10:00.301Z,1022.4
2016-04-20T20:11:00.351Z,1022.39
2016-04-20T20:12:00.402Z,1022.39
2016-04-20T20:13:00.449Z,1022.42
2016-04-20T20:14:00.499Z,1022.39
2016-04-20T20:15:00.549Z,1022.41
2016-04-20T20:16:00.630Z,1022.39
2016-04-20T20:17:00.649Z,1022.39
2016-04-20T20:18:00.698Z,1022.4
2016-04-20T20:19:00.763Z,1022.4
2016-04-20T20:20:00.798Z,1022.4
2016-04-20T20:21:00.862Z,1022.4
2016-04-20T20:22:00.922Z,1022.41
2016-04-20T20:23:00.948Z,1022.4
2016-04-20T20:24:01.014Z,1022.38
2016-04-20T20:25:01.063Z,1022.38
2016-04-20T20:26:01.112Z,1022.4
2016-04-20T20:27:01.161Z,1022.35
2016-04-20T20:28:01.228Z,1022.36
2016-04-20T20:29:01.261Z,1022.33
2016-04-20T20:30:01.310Z,1022.33
2016-04-20T20:31:01.376Z,1022.31
2016-04-20T20:32:01.410Z,1022.32
2016-04-20T20:33:01.460Z,1022.3
2016-04-20T20:34:01.508Z,1022.38
2016-04-20T20:35:01.574Z,1022.34
2016-04-20T20:36:01.624Z,1022.33
2016-04-20T20:37:01.657Z,1022.3